Time;durP1;ratioP1;P1;durP2;ratioP2;P2;SDS_P1;SDS_P2;PMS_P1;PMS_P2;Temp;Humidity;BMP_temperature;BMP_pressure;BME280_temperature;BME280_humidity;BME280_pressure;Samples;Min_cycle;Max_cycle;Signal;HPM_P1;HPM_P2
2023/04/18 00:02:55;;;;;;;1999.90;999.90;;;8.40;99.90;;;;;;6729409;88;20180;-80
2023/04/18 00:12:57;;;;;;;1999.90;999.90;;;8.30;99.90;;;;;;6732812;88;20528;-79
2023/04/18 00:22:59;;;;;;;1999.90;999.90;;;8.10;99.90;;;;;;6726890;88;20200;-80
2023/04/18 00:33:00;;;;;;;1999.90;999.90;;;8.00;99.90;;;;;;6716940;88;20673;-79
2023/04/18 00:43:01;;;;;;;1999.90;999.90;;;7.90;99.90;;;;;;6719088;88;20211;-78
2023/04/18 00:53:02;;;;;;;1999.90;999.90;;;7.60;99.90;;;;;;6729235;88;20197;-79
2023/04/18 01:03:02;;;;;;;1999.90;999.90;;;7.50;99.90;;;;;;6719797;88;20197;-78
2023/04/18 01:13:12;;;;;;;1999.90;999.90;;;7.40;99.90;;;;;;6721474;88;20251;-77
2023/04/18 01:23:13;;;;;;;1999.90;999.90;;;7.30;99.90;;;;;;6730119;88;20195;-78
2023/04/18 01:33:14;;;;;;;1999.90;999.90;;;7.20;99.90;;;;;;6720822;88;20201;-80
2023/04/18 01:43:14;;;;;;;1999.90;999.90;;;7.10;99.90;;;;;;6720989;88;20192;-79
2023/04/18 01:53:16;;;;;;;1999.90;999.90;;;6.80;99.90;;;;;;6720563;88;20683;-79
2023/04/18 02:03:17;;;;;;;1999.90;999.90;;;6.80;99.90;;;;;;6720518;88;20262;-79
2023/04/18 02:13:17;;;;;;;1999.90;999.90;;;6.80;99.90;;;;;;6720719;88;20327;-78
2023/04/18 02:23:18;;;;;;;1999.90;999.90;;;6.70;99.90;;;;;;6721090;88;20771;-78
2023/04/18 02:33:19;;;;;;;1999.90;999.90;;;6.60;99.90;;;;;;6715599;88;20209;-77
2023/04/18 02:43:40;;;;;;;1999.90;999.90;;;6.50;99.90;;;;;;6715228;77;20610;-78
2023/04/18 02:53:40;;;;;;;1999.90;999.90;;;6.40;99.90;;;;;;6742272;88;20286;-79
2023/04/18 03:03:41;;;;;;;1999.90;999.90;;;6.20;99.90;;;;;;6739788;88;20333;-80
2023/04/18 03:13:41;;;;;;;1999.90;999.90;;;6.10;99.90;;;;;;6739105;88;20205;-78
2023/04/18 03:23:42;;;;;;;1999.90;999.90;;;6.10;99.90;;;;;;6738392;88;20266;-79
2023/04/18 03:33:44;;;;;;;1999.90;999.90;;;5.90;99.90;;;;;;6737946;88;20250;-78
2023/04/18 03:43:44;;;;;;;1999.90;999.90;;;5.90;99.90;;;;;;6738424;88;20269;-78
2023/04/18 03:53:45;;;;;;;1999.90;999.90;;;5.70;99.90;;;;;;6735105;88;20242;-77
2023/04/18 04:03:46;;;;;;;1999.90;999.90;;;5.60;99.90;;;;;;6740389;88;20260;-78
2023/04/18 04:13:46;;;;;;;1999.90;999.90;;;5.60;99.90;;;;;;6750214;88;20826;-80
2023/04/18 04:23:47;;;;;;;1999.90;999.90;;;5.60;99.90;;;;;;6739141;88;20215;-79
2023/04/18 04:33:47;;;;;;;1999.90;999.90;;;5.80;99.90;;;;;;6740740;88;20623;-78
2023/04/18 04:43:50;;;;;;;1999.90;999.90;;;5.90;99.90;;;;;;6744903;88;20721;-78
2023/04/18 04:53:50;;;;;;;1999.90;999.90;;;6.10;99.90;;;;;;6746005;88;20212;-79
2023/04/18 05:03:51;;;;;;;1999.90;999.90;;;6.30;99.90;;;;;;6737969;88;20205;-78
2023/04/18 05:13:51;;;;;;;1999.90;999.90;;;6.50;99.90;;;;;;6737376;88;20311;-79
2023/04/18 05:23:52;;;;;;;1999.90;999.90;;;6.50;99.90;;;;;;6745861;88;20235;-78
2023/04/18 05:33:52;;;;;;;1999.90;999.90;;;6.50;99.90;;;;;;6736384;88;20193;-79
2023/04/18 05:43:53;;;;;;;1999.90;999.90;;;7.30;99.90;;;;;;6737890;88;20208;-78
2023/04/18 05:53:53;;;;;;;1999.90;999.90;;;7.30;99.90;;;;;;6737777;88;20218;-79
2023/04/18 06:03:54;;;;;;;1999.90;999.90;;;7.50;99.90;;;;;;6741635;88;20191;-79
2023/04/18 06:14:15;;;;;;;1999.90;999.90;;;7.70;99.90;;;;;;6786544;77;20493;-78
2023/04/18 06:24:16;;;;;;;1999.90;999.90;;;8.10;99.90;;;;;;6821881;77;20177;-79
2023/04/18 06:34:16;;;;;;;1999.90;999.90;;;8.70;99.90;;;;;;6747208;88;20180;-76
2023/04/18 06:44:17;;;;;;;1999.90;999.90;;;9.10;99.90;;;;;;6765370;77;20592;-77
2023/04/18 06:54:17;;;;;;;1999.90;999.90;;;9.20;99.90;;;;;;6738875;88;20180;-80
2023/04/18 07:04:18;;;;;;;1999.90;999.90;;;9.60;99.90;;;;;;6739741;88;20195;-78
2023/04/18 07:14:21;;;;;;;1999.90;999.90;;;10.10;99.90;;;;;;6738870;88;20620;-78
2023/04/18 07:24:22;;;;;;;1999.90;999.90;;;10.60;99.90;;;;;;6739876;88;20714;-78
2023/04/18 07:34:25;;;;;;;1999.90;999.90;;;10.80;99.90;;;;;;6738211;88;21364;-77
2023/04/18 07:44:26;;;;;;;1999.90;999.90;;;10.80;99.90;;;;;;6720812;88;20587;-81
2023/04/18 07:54:26;;;;;;;1999.90;999.90;;;11.40;99.90;;;;;;6720831;88;20231;-77
2023/04/18 08:04:27;;;;;;;1999.90;999.90;;;11.80;99.90;;;;;;6719122;88;20206;-79
2023/04/18 08:14:27;;;;;;;1999.90;999.90;;;12.50;99.90;;;;;;6719830;88;20198;-78
2023/04/18 08:24:28;;;;;;;1999.90;999.90;;;12.20;99.90;;;;;;6719785;88;20207;-78
2023/04/18 08:35:09;;;;;;;1999.90;999.90;;;12.10;99.90;;;;;;6917953;77;20164;-77
2023/04/18 08:45:51;;;;;;;1999.90;999.90;;;12.10;99.90;;;;;;6731427;77;20596;-77
2023/04/18 08:55:55;;;;;;;1999.90;999.90;;;12.40;99.90;;;;;;6729165;88;20211;-80
2023/04/18 09:06:17;;;;;;;1999.90;999.90;;;12.40;99.90;;;;;;6718433;88;20190;-78
2023/04/18 09:16:21;;;;;;;1999.90;999.90;;;12.10;99.90;;;;;;6710209;88;20651;-78
2023/04/18 09:26:35;;;;;;;1999.90;999.90;;;12.30;99.90;;;;;;6709450;88;20666;-77
2023/04/18 09:36:36;;;;;;;1999.90;999.90;;;12.40;99.90;;;;;;6712504;88;20201;-79
2023/04/18 09:46:36;;;;;;;1999.90;999.90;;;12.40;99.90;;;;;;6713836;88;20215;-79
2023/04/18 09:56:40;;;;;;;1999.90;999.90;;;13.20;99.90;;;;;;6720283;88;20220;-79
2023/04/18 10:06:44;;;;;;;1999.90;999.90;;;13.60;99.90;;;;;;6720097;88;20304;-79
2023/04/18 10:16:45;;;;;;;1999.90;999.90;;;14.10;99.90;;;;;;6731494;88;20673;-79
2023/04/18 10:26:46;;;;;;;1999.90;999.90;;;13.50;99.90;;;;;;6729913;88;20216;-79
2023/04/18 10:37:03;;;;;;;1999.90;999.90;;;13.80;99.90;;;;;;6714616;88;20214;-79
2023/04/18 10:47:06;;;;;;;1999.90;999.90;;;14.20;99.90;;;;;;6735657;88;20185;-79
2023/04/18 10:57:07;;;;;;;1999.90;999.90;;;13.90;99.90;;;;;;6740083;88;20261;-78
2023/04/18 11:07:08;;;;;;;1999.90;999.90;;;14.00;99.90;;;;;;6729336;88;20775;-80
2023/04/18 11:17:25;;;;;;;1999.90;999.90;;;14.10;99.90;;;;;;6719046;88;20240;-79
2023/04/18 11:27:28;;;;;;;1999.90;999.90;;;14.70;99.90;;;;;;6726566;88;20193;-79
2023/04/18 11:37:28;;;;;;;1999.90;999.90;;;15.10;99.90;;;;;;6724158;88;20260;-79
2023/04/18 11:47:32;;;;;;;1999.90;999.90;;;15.20;99.90;;;;;;6715024;88;20224;-79
2023/04/18 11:57:33;;;;;;;1999.90;999.90;;;15.40;99.90;;;;;;6724455;88;20685;-79
2023/04/18 12:07:42;;;;;;;1999.90;999.90;;;15.50;99.90;;;;;;6706131;88;20347;-79
2023/04/18 12:17:44;;;;;;;1999.90;999.90;;;15.60;99.90;;;;;;6709011;88;20220;-79
2023/04/18 12:27:56;;;;;;;1999.90;999.90;;;15.40;99.90;;;;;;6726874;88;20255;-78
2023/04/18 12:38:00;;;;;;;1999.90;999.90;;;15.70;99.90;;;;;;6720350;88;20225;-79
2023/04/18 12:48:01;;;;;;;1999.90;999.90;;;15.90;99.90;;;;;;6709020;88;20202;-79
2023/04/18 12:58:03;;;;;;;1999.90;999.90;;;17.00;99.90;;;;;;6710349;88;20198;-80
2023/04/18 13:08:04;;;;;;;1999.90;999.90;;;18.20;99.90;;;;;;6709185;88;20221;-79
2023/04/18 13:18:05;;;;;;;1999.90;999.90;;;18.30;99.90;;;;;;6715113;88;20227;-79
2023/04/18 13:28:05;;;;;;;1999.90;999.90;;;18.00;99.90;;;;;;6715621;88;20186;-79
2023/04/18 13:38:06;;;;;;;1999.90;999.90;;;18.00;99.90;;;;;;6712152;88;20213;-79
2023/04/18 13:48:06;;;;;;;1999.90;999.90;;;19.40;99.90;;;;;;6710015;88;20178;-79
2023/04/18 13:58:07;;;;;;;1999.90;999.90;;;19.30;99.70;;;;;;6723058;88;20189;-79
2023/04/18 14:08:07;;;;;;;1999.90;999.90;;;19.50;99.90;;;;;;6722900;88;20202;-79
2023/04/18 14:18:08;;;;;;;1999.90;999.90;;;20.50;98.40;;;;;;6721898;88;20220;-79
2023/04/18 14:28:10;;;;;;;1999.90;999.90;;;19.70;98.20;;;;;;6721753;88;20190;-79
2023/04/18 14:38:11;;;;;;;1999.90;999.90;;;19.40;98.70;;;;;;6722435;88;20194;-78
2023/04/18 14:48:11;;;;;;;1999.90;999.90;;;19.40;98.30;;;;;;6722895;88;20288;-78
2023/04/18 14:58:12;;;;;;;1999.90;999.90;;;19.50;97.90;;;;;;6705641;88;20198;-79
2023/04/18 15:08:13;;;;;;;1999.90;999.90;;;18.40;98.00;;;;;;6712273;88;21007;-78
2023/04/18 15:18:14;;;;;;;1999.90;999.90;;;18.60;98.60;;;;;;6708052;88;20277;-78
2023/04/18 15:28:16;;;;;;;1999.90;999.90;;;18.30;98.50;;;;;;6704457;88;20179;-78
2023/04/18 15:38:17;;;;;;;1999.90;999.90;;;19.50;97.50;;;;;;6713198;88;20723;-79
2023/04/18 15:48:18;;;;;;;1999.90;999.90;;;18.80;98.00;;;;;;6712889;88;20545;-78
2023/04/18 15:58:20;;;;;;;1999.90;999.90;;;18.70;97.70;;;;;;6710330;88;20178;-78
2023/04/18 16:08:21;;;;;;;1999.90;999.90;;;18.50;97.50;;;;;;6718024;88;20195;-79
2023/04/18 16:18:22;;;;;;;1999.90;999.90;;;19.10;96.80;;;;;;6715302;88;20249;-80
2023/04/18 16:28:22;;;;;;;1999.90;999.90;;;18.60;97.80;;;;;;6727844;88;20192;-80
2023/04/18 16:38:26;;;;;;;1999.90;999.90;;;18.60;97.40;;;;;;6722309;88;20205;-79
2023/04/18 16:48:27;;;;;;;1999.90;999.90;;;18.30;97.30;;;;;;6721424;88;20729;-79
2023/04/18 16:58:28;;;;;;;1999.90;999.90;;;17.50;98.50;;;;;;6721114;88;20198;-79
2023/04/18 17:08:30;;;;;;;1999.90;999.90;;;17.50;98.80;;;;;;6707244;88;20191;-79
2023/04/18 17:18:31;;;;;;;1999.90;999.90;;;17.40;98.50;;;;;;6712880;88;20268;-78
2023/04/18 17:28:32;;;;;;;1999.90;999.90;;;17.20;98.90;;;;;;6709523;88;20182;-77
2023/04/18 17:38:32;;;;;;;1999.90;999.90;;;16.60;99.00;;;;;;6702290;88;20195;-77
2023/04/18 17:48:33;;;;;;;1999.90;999.90;;;16.10;99.70;;;;;;6716445;88;20328;-78
2023/04/18 17:58:33;;;;;;;1999.90;999.90;;;16.00;99.90;;;;;;6718720;88;20327;-77
2023/04/18 18:08:34;;;;;;;1999.90;999.90;;;15.60;99.90;;;;;;6712721;88;20237;-77
2023/04/18 18:18:35;;;;;;;1999.90;999.90;;;15.30;99.90;;;;;;6717392;88;20217;-82
2023/04/18 18:28:36;;;;;;;1999.90;999.90;;;15.00;99.90;;;;;;6715652;88;20186;-79
2023/04/18 18:38:36;;;;;;;1999.90;999.90;;;14.80;99.90;;;;;;6715752;88;20232;-78
2023/04/18 18:48:37;;;;;;;1999.90;999.90;;;14.50;99.90;;;;;;6715663;88;20190;-79
2023/04/18 18:58:39;;;;;;;1999.90;999.90;;;14.30;99.90;;;;;;6716590;88;20264;-79
2023/04/18 19:08:39;;;;;;;1999.90;999.90;;;14.00;99.90;;;;;;6722129;88;20190;-79
2023/04/18 19:18:45;;;;;;;1999.90;999.90;;;13.90;99.90;;;;;;6704902;88;20202;-78
2023/04/18 19:28:46;;;;;;;;;;;13.70;99.90;;;;;;6717290;88;20579;-78
2023/04/18 19:38:46;;;;;;;1999.90;999.90;;;13.60;99.90;;;;;;6717784;88;20083;-79
2023/04/18 19:48:47;;;;;;;1999.90;999.90;;;13.60;99.90;;;;;;6702433;88;20181;-78
2023/04/18 19:58:48;;;;;;;1999.90;999.90;;;13.50;99.90;;;;;;6704199;88;20755;-79
2023/04/18 20:08:48;;;;;;;1999.90;999.90;;;13.60;99.90;;;;;;6709477;88;20282;-78
2023/04/18 20:18:50;;;;;;;1999.90;999.90;;;13.50;99.90;;;;;;6706942;88;20231;-79
2023/04/18 20:28:50;;;;;;;1999.90;999.90;;;13.50;99.90;;;;;;6710236;88;20746;-79
2023/04/18 20:38:51;;;;;;;1999.90;999.90;;;13.40;99.90;;;;;;6728744;77;20211;-80
2023/04/18 20:48:51;;;;;;;1999.90;999.90;;;13.40;99.90;;;;;;6744980;88;20210;-79
2023/04/18 20:58:51;;;;;;;1999.90;999.90;;;13.40;99.90;;;;;;6740173;88;20191;-80
2023/04/18 21:08:52;;;;;;;1999.90;999.90;;;13.30;99.90;;;;;;6736889;88;20986;-79
2023/04/18 21:18:53;;;;;;;1999.90;999.90;;;13.30;99.90;;;;;;6740870;88;20205;-80
2023/04/18 21:28:56;;;;;;;1999.90;999.90;;;13.30;99.90;;;;;;6750274;88;20193;-79
2023/04/18 21:38:59;;;;;;;1999.90;999.90;;;13.20;99.90;;;;;;6725596;88;20182;-79
2023/04/18 21:48:59;;;;;;;1999.90;999.90;;;13.10;99.90;;;;;;6723600;88;21009;-78
2023/04/18 21:59:00;;;;;;;1999.90;999.90;;;13.10;99.90;;;;;;6727103;88;20203;-80
2023/04/18 22:09:00;;;;;;;1999.90;999.90;;;13.00;99.90;;;;;;6724261;88;20559;-79
2023/04/18 22:19:02;;;;;;;1999.90;999.90;;;13.00;99.90;;;;;;6727260;88;20217;-81
2023/04/18 22:29:03;;;;;;;1999.90;999.90;;;13.00;99.90;;;;;;6727927;88;20251;-80
2023/04/18 22:39:05;;;;;;;1999.90;999.90;;;12.90;99.90;;;;;;6724110;88;20319;-80
2023/04/18 22:49:06;;;;;;;1999.90;999.90;;;12.90;99.90;;;;;;6728597;88;20667;-79
2023/04/18 22:59:06;;;;;;;1999.90;999.90;;;12.80;99.90;;;;;;6726500;88;20215;-80
2023/04/18 23:09:08;;;;;;;1999.90;999.90;;;12.70;99.90;;;;;;6722443;88;20625;-80
2023/04/18 23:19:09;;;;;;;1999.90;999.90;;;12.70;99.90;;;;;;6722932;88;20266;-79
2023/04/18 23:29:09;;;;;;;1999.90;999.90;;;12.70;99.90;;;;;;6728145;88;20176;-79
2023/04/18 23:39:10;;;;;;;1999.90;999.90;;;12.60;99.90;;;;;;6736340;88;20225;-79
2023/04/18 23:49:11;;;;;;;1999.90;999.90;;;12.60;99.90;;;;;;6721621;88;20272;-79
2023/04/18 23:59:11;;;;;;;1999.90;999.90;;;12.50;99.90;;;;;;6724135;88;20203;-79
